Marden, United Kingdom
Current Conditions -  °F | °C
As of 4:20 PM on Monday 26 Jan 2015 (Local Time) from EGKB Reporting Station
Scattered Clouds Scattered Clouds  
Wind Chill: 39°   Ceiling: Unl
Heat Index: 45°   Visibility: 6mi
Dew Point: 32°   Wind: 10mph
Humidity: 61%   Direction: 320°NW
Pressure: 30.24"   Gusts: NA
Location:  51.17°N, 0.49°E
Report Text: EGKB 261620Z 32009KT 290V360 9999 SCT030 07/M00 Q1024
Loading
Personal Weather Stations






























Interactive Weather Map New forecast layout! Learn more

10-Day Weather Forecast

Advertisements
Track Severe Weather on mobile